Easter Island, Chile
Current Conditions -  °F | °C
As of 5:00 AM on Monday 20 Oct 2014 (Local Time) from SCIP Reporting Station
Rain Showers Rain Showers  
Wind Chill: 16°   Ceiling: 1700
Heat Index: 16°   Visibility: 6mi
Dew Point: 13°   Wind: 12mph
Humidity: 82%   Direction: 140°SE
Pressure: 30.12"   Gusts: NA
Location:  27.12°S, 109.37°W
Report Text: SCIP 201100Z 14010KT 100V180 9999 -SHRA FEW012 BKN017 16/13 Q1020 NOSIG
Loading
Personal Weather Stations






























Interactive Weather Map New forecast layout! Learn more

10-Day Weather Forecast

Advertisements
Track Severe Weather on mobile